sensor_id;sensor_type;location;lat;lon;timestamp;pressure;altitude;pressure_sealevel;temperature;humidity
70103;BME280;57470;50.034;15.256;2022-10-18T00:01:29;100475.38;;;11.71;94.36
70103;BME280;57470;50.034;15.256;2022-10-18T00:03:54;100482.16;;;11.77;93.60
70103;BME280;57470;50.034;15.256;2022-10-18T00:06:19;100475.16;;;11.74;93.15
70103;BME280;57470;50.034;15.256;2022-10-18T00:08:45;100479.72;;;11.72;92.99
70103;BME280;57470;50.034;15.256;2022-10-18T00:11:10;100473.41;;;11.75;93.14
70103;BME280;57470;50.034;15.256;2022-10-18T00:13:36;100476.47;;;11.67;94.16
70103;BME280;57470;50.034;15.256;2022-10-18T00:16:04;100488.69;;;11.71;93.91
70103;BME280;57470;50.034;15.256;2022-10-18T00:18:30;100482.81;;;11.64;94.32
70103;BME280;57470;50.034;15.256;2022-10-18T00:21:01;100485.59;;;11.63;94.23
70103;BME280;57470;50.034;15.256;2022-10-18T00:23:28;100480.69;;;11.55;94.63
70103;BME280;57470;50.034;15.256;2022-10-18T00:28:30;100474.16;;;11.61;94.29
70103;BME280;57470;50.034;15.256;2022-10-18T00:30:57;100471.91;;;11.38;96.03
70103;BME280;57470;50.034;15.256;2022-10-18T00:33:22;100478.28;;;11.51;94.60
70103;BME280;57470;50.034;15.256;2022-10-18T00:35:48;100474.06;;;11.47;94.79
70103;BME280;57470;50.034;15.256;2022-10-18T00:38:13;100472.84;;;11.21;95.28
70103;BME280;57470;50.034;15.256;2022-10-18T00:40:38;100478.53;;;11.31;96.11
70103;BME280;57470;50.034;15.256;2022-10-18T00:43:04;100478.38;;;11.34;95.42
70103;BME280;57470;50.034;15.256;2022-10-18T00:45:29;100464.13;;;11.35;94.62
70103;BME280;57470;50.034;15.256;2022-10-18T00:48:00;100465.13;;;11.32;95.21
70103;BME280;57470;50.034;15.256;2022-10-18T00:50:29;100465.31;;;11.45;94.75
70103;BME280;57470;50.034;15.256;2022-10-18T00:52:58;100462.19;;;11.21;95.44
70103;BME280;57470;50.034;15.256;2022-10-18T00:55:26;100458.00;;;11.17;96.90
70103;BME280;57470;50.034;15.256;2022-10-18T00:57:53;100472.34;;;11.14;96.31
70103;BME280;57470;50.034;15.256;2022-10-18T01:00:19;100455.34;;;11.33;95.46
70103;BME280;57470;50.034;15.256;2022-10-18T01:02:45;100459.31;;;11.25;94.88
70103;BME280;57470;50.034;15.256;2022-10-18T01:05:13;100458.09;;;11.31;96.00
70103;BME280;57470;50.034;15.256;2022-10-18T01:07:52;100448.72;;;11.24;95.63
70103;BME280;57470;50.034;15.256;2022-10-18T01:19:20;100454.66;;;11.45;94.47
70103;BME280;57470;50.034;15.256;2022-10-18T01:21:56;100457.56;;;11.40;94.78
70103;BME280;57470;50.034;15.256;2022-10-18T01:32:33;100457.22;;;11.31;95.67
70103;BME280;57470;50.034;15.256;2022-10-18T01:35:06;100463.94;;;11.38;95.27
70103;BME280;57470;50.034;15.256;2022-10-18T01:37:35;100453.47;;;11.35;95.50
70103;BME280;57470;50.034;15.256;2022-10-18T01:40:04;100449.66;;;11.23;95.74
70103;BME280;57470;50.034;15.256;2022-10-18T01:42:31;100454.50;;;11.16;96.63
70103;BME280;57470;50.034;15.256;2022-10-18T01:45:00;100447.00;;;11.07;97.50
70103;BME280;57470;50.034;15.256;2022-10-18T01:47:29;100448.28;;;11.00;97.70
70103;BME280;57470;50.034;15.256;2022-10-18T01:50:00;100443.06;;;11.14;97.05
70103;BME280;57470;50.034;15.256;2022-10-18T01:52:28;100437.88;;;11.11;96.14
70103;BME280;57470;50.034;15.256;2022-10-18T01:54:55;100441.91;;;11.18;95.82
70103;BME280;57470;50.034;15.256;2022-10-18T01:57:58;100432.47;;;11.13;96.37
70103;BME280;57470;50.034;15.256;2022-10-18T02:00:39;100439.19;;;11.04;95.42
70103;BME280;57470;50.034;15.256;2022-10-18T02:03:21;100437.09;;;10.94;95.45
70103;BME280;57470;50.034;15.256;2022-10-18T02:08:27;100435.97;;;10.82;96.41
70103;BME280;57470;50.034;15.256;2022-10-18T02:11:04;100436.13;;;10.79;95.85
70103;BME280;57470;50.034;15.256;2022-10-18T02:13:50;100432.03;;;10.89;95.83
70103;BME280;57470;50.034;15.256;2022-10-18T02:16:57;100436.38;;;10.74;96.74
70103;BME280;57470;50.034;15.256;2022-10-18T02:19:19;100432.81;;;10.91;97.36
70103;BME280;57470;50.034;15.256;2022-10-18T02:21:47;100433.56;;;10.93;96.89
70103;BME280;57470;50.034;15.256;2022-10-18T02:24:14;100431.00;;;10.91;97.07
70103;BME280;57470;50.034;15.256;2022-10-18T02:26:42;100418.16;;;11.00;96.04
70103;BME280;57470;50.034;15.256;2022-10-18T02:29:07;100440.19;;;11.02;96.58
70103;BME280;57470;50.034;15.256;2022-10-18T02:31:38;100430.59;;;10.99;96.27
70103;BME280;57470;50.034;15.256;2022-10-18T02:36:53;100425.19;;;11.16;95.57
70103;BME280;57470;50.034;15.256;2022-10-18T02:39:33;100423.91;;;11.23;95.59
70103;BME280;57470;50.034;15.256;2022-10-18T02:42:00;100418.22;;;11.14;97.25
70103;BME280;57470;50.034;15.256;2022-10-18T02:44:25;100422.34;;;11.19;96.74
70103;BME280;57470;50.034;15.256;2022-10-18T02:46:51;100426.41;;;11.26;97.06
70103;BME280;57470;50.034;15.256;2022-10-18T02:49:16;100428.56;;;11.36;96.63
70103;BME280;57470;50.034;15.256;2022-10-18T02:51:42;100423.22;;;11.36;96.28
70103;BME280;57470;50.034;15.256;2022-10-18T02:54:07;100430.34;;;11.35;96.12
70103;BME280;57470;50.034;15.256;2022-10-18T02:56:34;100428.28;;;11.40;96.29
70103;BME280;57470;50.034;15.256;2022-10-18T02:59:00;100431.47;;;11.31;95.72
70103;BME280;57470;50.034;15.256;2022-10-18T03:01:26;100430.34;;;11.35;96.38
70103;BME280;57470;50.034;15.256;2022-10-18T03:03:51;100428.97;;;11.44;95.79
70103;BME280;57470;50.034;15.256;2022-10-18T03:06:17;100435.91;;;11.46;96.26
70103;BME280;57470;50.034;15.256;2022-10-18T03:08:44;100436.34;;;11.39;96.33
70103;BME280;57470;50.034;15.256;2022-10-18T03:11:09;100440.38;;;11.46;96.04
70103;BME280;57470;50.034;15.256;2022-10-18T03:13:35;100444.19;;;11.42;95.79
70103;BME280;57470;50.034;15.256;2022-10-18T03:16:00;100444.34;;;11.39;96.11
70103;BME280;57470;50.034;15.256;2022-10-18T03:18:26;100443.47;;;11.38;95.49
70103;BME280;57470;50.034;15.256;2022-10-18T03:20:51;100447.78;;;11.41;94.80
70103;BME280;57470;50.034;15.256;2022-10-18T03:23:17;100436.53;;;11.36;94.86
70103;BME280;57470;50.034;15.256;2022-10-18T03:25:42;100430.59;;;11.31;95.60
70103;BME280;57470;50.034;15.256;2022-10-18T03:28:08;100440.38;;;11.30;95.48
70103;BME280;57470;50.034;15.256;2022-10-18T03:30:33;100435.91;;;11.31;94.04
70103;BME280;57470;50.034;15.256;2022-10-18T03:32:58;100423.97;;;11.06;95.01
70103;BME280;57470;50.034;15.256;2022-10-18T03:35:24;100422.84;;;11.10;95.30
70103;BME280;57470;50.034;15.256;2022-10-18T03:37:50;100432.13;;;11.19;95.17
70103;BME280;57470;50.034;15.256;2022-10-18T03:40:16;100422.69;;;11.13;94.51
70103;BME280;57470;50.034;15.256;2022-10-18T03:42:41;100426.22;;;11.14;94.38
70103;BME280;57470;50.034;15.256;2022-10-18T03:45:07;100428.50;;;10.88;96.28
70103;BME280;57470;50.034;15.256;2022-10-18T03:47:32;100421.47;;;11.03;95.80
70103;BME280;57470;50.034;15.256;2022-10-18T03:49:58;100425.28;;;11.15;95.78
70103;BME280;57470;50.034;15.256;2022-10-18T03:52:23;100417.63;;;11.09;96.22
70103;BME280;57470;50.034;15.256;2022-10-18T03:54:49;100419.88;;;11.16;95.80
70103;BME280;57470;50.034;15.256;2022-10-18T03:57:14;100417.72;;;11.07;96.47
70103;BME280;57470;50.034;15.256;2022-10-18T03:59:40;100410.50;;;11.09;96.24
70103;BME280;57470;50.034;15.256;2022-10-18T04:02:05;100411.75;;;10.86;98.01
70103;BME280;57470;50.034;15.256;2022-10-18T04:04:30;100411.19;;;10.97;97.74
70103;BME280;57470;50.034;15.256;2022-10-18T04:06:56;100414.69;;;10.98;97.37
70103;BME280;57470;50.034;15.256;2022-10-18T04:09:21;100410.16;;;11.15;97.10
70103;BME280;57470;50.034;15.256;2022-10-18T04:11:49;100408.16;;;11.03;97.43
70103;BME280;57470;50.034;15.256;2022-10-18T04:14:15;100403.56;;;11.07;97.54
70103;BME280;57470;50.034;15.256;2022-10-18T04:16:41;100399.66;;;11.12;96.69
70103;BME280;57470;50.034;15.256;2022-10-18T04:19:06;100407.06;;;11.07;97.23
70103;BME280;57470;50.034;15.256;2022-10-18T04:21:31;100409.38;;;11.13;96.77
70103;BME280;57470;50.034;15.256;2022-10-18T04:23:57;100415.28;;;11.03;96.81
70103;BME280;57470;50.034;15.256;2022-10-18T04:26:22;100415.84;;;11.09;96.79
70103;BME280;57470;50.034;15.256;2022-10-18T04:28:48;100420.63;;;11.18;96.60
70103;BME280;57470;50.034;15.256;2022-10-18T04:31:13;100411.78;;;11.02;96.29
70103;BME280;57470;50.034;15.256;2022-10-18T04:33:38;100416.25;;;11.02;96.70
70103;BME280;57470;50.034;15.256;2022-10-18T04:36:04;100420.47;;;11.06;97.04
70103;BME280;57470;50.034;15.256;2022-10-18T04:38:30;100422.63;;;11.15;95.89
70103;BME280;57470;50.034;15.256;2022-10-18T04:40:55;100418.38;;;11.11;95.04
70103;BME280;57470;50.034;15.256;2022-10-18T04:43:21;100419.94;;;11.15;94.92
70103;BME280;57470;50.034;15.256;2022-10-18T04:45:47;100432.13;;;11.03;94.71
70103;BME280;57470;50.034;15.256;2022-10-18T04:48:15;100429.03;;;11.11;94.34
70103;BME280;57470;50.034;15.256;2022-10-18T04:50:40;100430.50;;;11.01;94.07
70103;BME280;57470;50.034;15.256;2022-10-18T04:53:06;100427.66;;;10.88;94.10
70103;BME280;57470;50.034;15.256;2022-10-18T04:55:31;100425.06;;;10.86;94.31
70103;BME280;57470;50.034;15.256;2022-10-18T04:57:57;100425.66;;;10.91;94.21
70103;BME280;57470;50.034;15.256;2022-10-18T05:00:22;100430.31;;;10.88;93.90
70103;BME280;57470;50.034;15.256;2022-10-18T05:02:47;100429.34;;;10.73;94.38
70103;BME280;57470;50.034;15.256;2022-10-18T05:05:14;100426.19;;;10.82;93.84
70103;BME280;57470;50.034;15.256;2022-10-18T05:07:39;100418.16;;;10.67;94.51
70103;BME280;57470;50.034;15.256;2022-10-18T05:10:05;100421.75;;;10.66;94.38
70103;BME280;57470;50.034;15.256;2022-10-18T05:12:30;100421.00;;;10.64;94.75
70103;BME280;57470;50.034;15.256;2022-10-18T05:14:56;100427.25;;;10.63;94.84
70103;BME280;57470;50.034;15.256;2022-10-18T05:17:21;100426.34;;;10.64;94.71
70103;BME280;57470;50.034;15.256;2022-10-18T05:19:46;100431.81;;;10.61;94.67
70103;BME280;57470;50.034;15.256;2022-10-18T05:22:12;100432.59;;;10.63;94.68
70103;BME280;57470;50.034;15.256;2022-10-18T05:24:37;100427.72;;;10.71;94.23
70103;BME280;57470;50.034;15.256;2022-10-18T05:27:03;100433.59;;;10.60;94.57
70103;BME280;57470;50.034;15.256;2022-10-18T05:29:28;100438.47;;;10.52;94.54
70103;BME280;57470;50.034;15.256;2022-10-18T05:31:54;100439.19;;;10.56;94.46
70103;BME280;57470;50.034;15.256;2022-10-18T05:34:19;100427.34;;;10.61;94.58
70103;BME280;57470;50.034;15.256;2022-10-18T05:36:45;100440.66;;;10.61;94.58
70103;BME280;57470;50.034;15.256;2022-10-18T05:39:11;100434.81;;;10.55;94.54
70103;BME280;57470;50.034;15.256;2022-10-18T05:41:37;100427.84;;;10.52;95.17
70103;BME280;57470;50.034;15.256;2022-10-18T05:44:05;100437.97;;;10.61;94.83
70103;BME280;57470;50.034;15.256;2022-10-18T05:46:31;100438.03;;;10.44;96.24
70103;BME280;57470;50.034;15.256;2022-10-18T05:48:57;100432.59;;;10.63;95.17
70103;BME280;57470;50.034;15.256;2022-10-18T05:51:22;100436.72;;;10.68;94.80
70103;BME280;57470;50.034;15.256;2022-10-18T05:53:48;100436.56;;;10.71;94.49
70103;BME280;57470;50.034;15.256;2022-10-18T05:56:13;100445.56;;;10.84;94.48
70103;BME280;57470;50.034;15.256;2022-10-18T05:58:40;100446.22;;;10.89;94.37
70103;BME280;57470;50.034;15.256;2022-10-18T06:01:06;100445.16;;;10.92;94.06
70103;BME280;57470;50.034;15.256;2022-10-18T06:03:32;100441.56;;;10.93;94.36
70103;BME280;57470;50.034;15.256;2022-10-18T06:06:03;100445.44;;;11.03;93.92
70103;BME280;57470;50.034;15.256;2022-10-18T06:08:29;100436.78;;;11.31;92.75
70103;BME280;57470;50.034;15.256;2022-10-18T06:10:54;100450.50;;;11.55;91.94
70103;BME280;57470;50.034;15.256;2022-10-18T06:13:20;100440.25;;;11.94;90.66
70103;BME280;57470;50.034;15.256;2022-10-18T06:15:45;100443.75;;;12.97;87.39
70103;BME280;57470;50.034;15.256;2022-10-18T06:18:11;100448.44;;;14.03;82.56
70103;BME280;57470;50.034;15.256;2022-10-18T06:20:36;100443.03;;;13.36;83.81
70103;BME280;57470;50.034;15.256;2022-10-18T06:23:01;100440.78;;;13.30;84.08
70103;BME280;57470;50.034;15.256;2022-10-18T06:25:27;100453.94;;;13.05;85.83
70103;BME280;57470;50.034;15.256;2022-10-18T06:27:52;100447.19;;;13.13;85.44
70103;BME280;57470;50.034;15.256;2022-10-18T06:30:17;100445.53;;;13.25;85.33
70103;BME280;57470;50.034;15.256;2022-10-18T06:32:43;100445.03;;;13.47;85.43
70103;BME280;57470;50.034;15.256;2022-10-18T06:35:08;100449.59;;;14.38;83.04
70103;BME280;57470;50.034;15.256;2022-10-18T06:37:34;100447.69;;;14.78;80.32
70103;BME280;57470;50.034;15.256;2022-10-18T06:40:01;100456.03;;;14.99;80.87
70103;BME280;57470;50.034;15.256;2022-10-18T06:42:26;100452.53;;;14.73;80.34
70103;BME280;57470;50.034;15.256;2022-10-18T06:44:51;100449.47;;;15.16;78.18
70103;BME280;57470;50.034;15.256;2022-10-18T06:47:17;100448.59;;;15.88;76.98
70103;BME280;57470;50.034;15.256;2022-10-18T06:49:42;100451.34;;;15.75;77.77
70103;BME280;57470;50.034;15.256;2022-10-18T06:52:08;100456.34;;;14.94;80.48
70103;BME280;57470;50.034;15.256;2022-10-18T06:54:33;100445.25;;;14.75;79.95
70103;BME280;57470;50.034;15.256;2022-10-18T06:56:58;100458.59;;;16.21;76.47
70103;BME280;57470;50.034;15.256;2022-10-18T06:59:26;100457.09;;;15.09;79.27
70103;BME280;57470;50.034;15.256;2022-10-18T07:01:52;100461.59;;;15.58;80.13
70103;BME280;57470;50.034;15.256;2022-10-18T07:04:17;100462.81;;;16.01;77.97
70103;BME280;57470;50.034;15.256;2022-10-18T07:06:43;100468.03;;;14.03;82.33
70103;BME280;57470;50.034;15.256;2022-10-18T07:09:08;100469.31;;;14.50;81.93
70103;BME280;57470;50.034;15.256;2022-10-18T07:11:34;100461.50;;;14.72;81.80
70103;BME280;57470;50.034;15.256;2022-10-18T07:14:00;100463.06;;;13.97;84.15
70103;BME280;57470;50.034;15.256;2022-10-18T07:16:27;100459.69;;;13.81;84.54
70103;BME280;57470;50.034;15.256;2022-10-18T07:18:54;100451.84;;;13.92;84.46
70103;BME280;57470;50.034;15.256;2022-10-18T07:21:21;100446.81;;;14.00;86.53
70103;BME280;57470;50.034;15.256;2022-10-18T07:23:47;100456.25;;;13.52;87.34
70103;BME280;57470;50.034;15.256;2022-10-18T07:26:21;100449.44;;;13.61;87.18
70103;BME280;57470;50.034;15.256;2022-10-18T07:28:50;100454.16;;;13.84;87.99
70103;BME280;57470;50.034;15.256;2022-10-18T07:31:16;100446.91;;;13.86;86.45
70103;BME280;57470;50.034;15.256;2022-10-18T07:33:41;100435.38;;;13.44;87.09
70103;BME280;57470;50.034;15.256;2022-10-18T07:36:09;100440.72;;;13.98;87.08
70103;BME280;57470;50.034;15.256;2022-10-18T07:38:35;100443.63;;;13.95;87.87
70103;BME280;57470;50.034;15.256;2022-10-18T07:41:02;100441.91;;;14.07;86.60
70103;BME280;57470;50.034;15.256;2022-10-18T07:43:28;100445.69;;;14.17;87.19
70103;BME280;57470;50.034;15.256;2022-10-18T07:45:56;100440.09;;;14.07;86.68
70103;BME280;57470;50.034;15.256;2022-10-18T07:48:22;100439.06;;;14.22;85.68
70103;BME280;57470;50.034;15.256;2022-10-18T07:50:48;100440.53;;;14.01;84.55
70103;BME280;57470;50.034;15.256;2022-10-18T07:53:13;100449.88;;;14.34;84.50
70103;BME280;57470;50.034;15.256;2022-10-18T07:55:39;100436.66;;;14.45;83.50
70103;BME280;57470;50.034;15.256;2022-10-18T07:58:04;100431.50;;;14.80;84.73
70103;BME280;57470;50.034;15.256;2022-10-18T08:00:30;100438.75;;;14.27;84.52
70103;BME280;57470;50.034;15.256;2022-10-18T08:02:56;100431.81;;;14.88;83.66
70103;BME280;57470;50.034;15.256;2022-10-18T08:05:22;100444.81;;;14.56;84.29
70103;BME280;57470;50.034;15.256;2022-10-18T08:07:47;100430.00;;;14.88;84.25
70103;BME280;57470;50.034;15.256;2022-10-18T08:10:12;100426.69;;;14.72;84.79
70103;BME280;57470;50.034;15.256;2022-10-18T08:12:38;100427.88;;;14.68;83.45
70103;BME280;57470;50.034;15.256;2022-10-18T08:15:04;100430.22;;;14.60;84.83
70103;BME280;57470;50.034;15.256;2022-10-18T08:17:29;100430.75;;;15.03;82.77
70103;BME280;57470;50.034;15.256;2022-10-18T08:19:55;100420.06;;;15.27;82.27
70103;BME280;57470;50.034;15.256;2022-10-18T08:22:20;100433.38;;;15.52;81.51
70103;BME280;57470;50.034;15.256;2022-10-18T08:24:49;100426.88;;;15.07;82.59
70103;BME280;57470;50.034;15.256;2022-10-18T08:27:15;100424.22;;;15.31;83.97
70103;BME280;57470;50.034;15.256;2022-10-18T08:29:40;100420.09;;;15.63;81.32
70103;BME280;57470;50.034;15.256;2022-10-18T08:32:06;100424.06;;;15.82;81.92
70103;BME280;57470;50.034;15.256;2022-10-18T08:34:35;100419.09;;;15.88;80.48
70103;BME280;57470;50.034;15.256;2022-10-18T08:37:01;100421.22;;;15.72;81.86
70103;BME280;57470;50.034;15.256;2022-10-18T08:39:26;100410.03;;;16.13;79.61
70103;BME280;57470;50.034;15.256;2022-10-18T08:42:15;100405.03;;;16.08;79.92
70103;BME280;57470;50.034;15.256;2022-10-18T08:44:48;100403.53;;;16.50;79.93
70103;BME280;57470;50.034;15.256;2022-10-18T08:47:20;100403.97;;;15.87;80.70
70103;BME280;57470;50.034;15.256;2022-10-18T08:49:51;100394.06;;;16.23;79.69
70103;BME280;57470;50.034;15.256;2022-10-18T08:53:13;100399.63;;;16.43;80.37
70103;BME280;57470;50.034;15.256;2022-10-18T08:55:30;100397.47;;;16.71;78.86
70103;BME280;57470;50.034;15.256;2022-10-18T08:58:02;100386.75;;;16.71;79.09
70103;BME280;57470;50.034;15.256;2022-10-18T09:00:30;100389.31;;;16.72;79.49
70103;BME280;57470;50.034;15.256;2022-10-18T09:05:50;100379.28;;;16.97;78.28
70103;BME280;57470;50.034;15.256;2022-10-18T09:16:02;100388.41;;;17.16;79.19
70103;BME280;57470;50.034;15.256;2022-10-18T09:21:20;100383.69;;;17.52;77.57
70103;BME280;57470;50.034;15.256;2022-10-18T09:23:48;100377.50;;;17.18;78.25
70103;BME280;57470;50.034;15.256;2022-10-18T09:26:20;100374.13;;;17.59;77.91
70103;BME280;57470;50.034;15.256;2022-10-18T09:29:07;100363.59;;;17.67;76.99
70103;BME280;57470;50.034;15.256;2022-10-18T09:36:42;100357.59;;;17.95;77.39
70103;BME280;57470;50.034;15.256;2022-10-18T09:39:12;100360.06;;;18.50;74.84
70103;BME280;57470;50.034;15.256;2022-10-18T09:41:46;100353.59;;;18.31;74.79
70103;BME280;57470;50.034;15.256;2022-10-18T09:44:45;100359.31;;;18.59;74.22
70103;BME280;57470;50.034;15.256;2022-10-18T09:47:25;100356.31;;;18.92;74.36
70103;BME280;57470;50.034;15.256;2022-10-18T09:49:58;100348.47;;;18.28;74.34
70103;BME280;57470;50.034;15.256;2022-10-18T09:52:35;100350.81;;;18.63;74.10
70103;BME280;57470;50.034;15.256;2022-10-18T09:55:11;100352.09;;;19.09;73.99
70103;BME280;57470;50.034;15.256;2022-10-18T09:57:55;100352.94;;;19.00;74.13
70103;BME280;57470;50.034;15.256;2022-10-18T10:00:30;100340.13;;;18.92;73.88
70103;BME280;57470;50.034;15.256;2022-10-18T10:02:59;100349.91;;;18.84;74.94
70103;BME280;57470;50.034;15.256;2022-10-18T10:05:25;100349.00;;;19.14;74.54
70103;BME280;57470;50.034;15.256;2022-10-18T10:07:56;100338.06;;;19.25;73.49
70103;BME280;57470;50.034;15.256;2022-10-18T10:10:23;100336.22;;;19.25;73.44
70103;BME280;57470;50.034;15.256;2022-10-18T10:15:29;100339.28;;;19.51;71.42
70103;BME280;57470;50.034;15.256;2022-10-18T10:20:47;100337.44;;;19.61;72.58
70103;BME280;57470;50.034;15.256;2022-10-18T10:25:41;100329.63;;;19.87;70.05
70103;BME280;57470;50.034;15.256;2022-10-18T10:28:21;100324.28;;;20.24;70.13
70103;BME280;57470;50.034;15.256;2022-10-18T10:30:48;100316.66;;;20.66;70.80
70103;BME280;57470;50.034;15.256;2022-10-18T10:33:34;100313.75;;;20.77;71.28
70103;BME280;57470;50.034;15.256;2022-10-18T10:36:02;100319.81;;;21.16;69.68
70103;BME280;57470;50.034;15.256;2022-10-18T10:38:31;100302.03;;;20.03;72.53
70103;BME280;57470;50.034;15.256;2022-10-18T10:40:57;100306.97;;;20.36;70.24
70103;BME280;57470;50.034;15.256;2022-10-18T10:43:35;100315.44;;;20.78;70.07
70103;BME280;57470;50.034;15.256;2022-10-18T10:46:11;100311.88;;;20.50;69.21
70103;BME280;57470;50.034;15.256;2022-10-18T10:51:36;100305.84;;;20.10;71.88
70103;BME280;57470;50.034;15.256;2022-10-18T10:54:14;100305.94;;;20.47;71.09
70103;BME280;57470;50.034;15.256;2022-10-18T10:57:00;100300.84;;;20.24;70.53
70103;BME280;57470;50.034;15.256;2022-10-18T10:59:30;100298.34;;;20.04;70.84
70103;BME280;57470;50.034;15.256;2022-10-18T11:02:20;100295.72;;;20.68;71.00
70103;BME280;57470;50.034;15.256;2022-10-18T11:04:51;100298.88;;;20.64;70.52
70103;BME280;57470;50.034;15.256;2022-10-18T11:07:30;100289.06;;;20.63;69.83
70103;BME280;57470;50.034;15.256;2022-10-18T11:10:13;100272.69;;;20.37;70.62
70103;BME280;57470;50.034;15.256;2022-10-18T11:15:16;100266.94;;;20.03;72.11
70103;BME280;57470;50.034;15.256;2022-10-18T11:20:46;100278.22;;;20.35;70.35
70103;BME280;57470;50.034;15.256;2022-10-18T11:23:14;100270.22;;;20.34;70.46
70103;BME280;57470;50.034;15.256;2022-10-18T11:34:40;100257.22;;;20.19;71.31
70103;BME280;57470;50.034;15.256;2022-10-18T11:39:36;100257.78;;;20.13;71.67
70103;BME280;57470;50.034;15.256;2022-10-18T11:53:39;100242.50;;;19.95;79.01
70103;BME280;57470;50.034;15.256;2022-10-18T11:56:47;100241.53;;;19.86;80.22
70103;BME280;57470;50.034;15.256;2022-10-18T11:59:36;100246.06;;;19.95;80.44
70103;BME280;57470;50.034;15.256;2022-10-18T12:02:21;100241.09;;;19.91;80.94
70103;BME280;57470;50.034;15.256;2022-10-18T12:04:53;100241.91;;;20.01;79.64
70103;BME280;57470;50.034;15.256;2022-10-18T12:07:21;100231.72;;;19.95;78.51
70103;BME280;57470;50.034;15.256;2022-10-18T12:09:49;100229.88;;;19.95;79.03
70103;BME280;57470;50.034;15.256;2022-10-18T12:12:37;100224.16;;;19.98;77.71
70103;BME280;57470;50.034;15.256;2022-10-18T12:15:17;100215.94;;;19.90;79.22
70103;BME280;57470;50.034;15.256;2022-10-18T12:17:46;100207.56;;;19.93;78.37
70103;BME280;57470;50.034;15.256;2022-10-18T12:20:34;100212.13;;;19.83;80.75
70103;BME280;57470;50.034;15.256;2022-10-18T12:23:11;100211.56;;;19.79;84.25
70103;BME280;57470;50.034;15.256;2022-10-18T12:25:42;100199.06;;;19.78;82.40
70103;BME280;57470;50.034;15.256;2022-10-18T12:31:06;100188.25;;;19.78;82.89
70103;BME280;57470;50.034;15.256;2022-10-18T12:33:40;100191.78;;;19.89;81.82
70103;BME280;57470;50.034;15.256;2022-10-18T12:38:44;100183.78;;;19.97;78.38
70103;BME280;57470;50.034;15.256;2022-10-18T12:41:19;100178.34;;;20.06;75.78
70103;BME280;57470;50.034;15.256;2022-10-18T12:44:04;100179.34;;;20.05;76.21
70103;BME280;57470;50.034;15.256;2022-10-18T12:46:44;100168.81;;;20.12;76.07
70103;BME280;57470;50.034;15.256;2022-10-18T12:49:12;100157.94;;;19.47;76.24
70103;BME280;57470;50.034;15.256;2022-10-18T12:51:53;100151.06;;;19.72;77.56
70103;BME280;57470;50.034;15.256;2022-10-18T12:54:33;100156.75;;;20.06;76.03
70103;BME280;57470;50.034;15.256;2022-10-18T12:57:01;100150.28;;;19.90;75.77
70103;BME280;57470;50.034;15.256;2022-10-18T13:09:28;100135.88;;;19.62;77.00
70103;BME280;57470;50.034;15.256;2022-10-18T13:23:30;100127.78;;;19.62;78.55
70103;BME280;57470;50.034;15.256;2022-10-18T13:26:16;100123.81;;;19.66;77.87
70103;BME280;57470;50.034;15.256;2022-10-18T13:34:32;100126.69;;;20.19;77.90
70103;BME280;57470;50.034;15.256;2022-10-18T13:37:25;100127.47;;;20.11;76.64
70103;BME280;57470;50.034;15.256;2022-10-18T13:40:21;100122.84;;;19.94;76.42
70103;BME280;57470;50.034;15.256;2022-10-18T13:42:48;100123.53;;;20.23;75.62
70103;BME280;57470;50.034;15.256;2022-10-18T13:50:56;100116.91;;;20.18;77.18
70103;BME280;57470;50.034;15.256;2022-10-18T13:54:03;100119.03;;;20.42;75.21
70103;BME280;57470;50.034;15.256;2022-10-18T13:56:51;100118.47;;;20.48;76.12
70103;BME280;57470;50.034;15.256;2022-10-18T13:59:37;100117.91;;;20.44;75.07
70103;BME280;57470;50.034;15.256;2022-10-18T14:04:58;100120.19;;;20.84;75.12
70103;BME280;57470;50.034;15.256;2022-10-18T14:07:29;100115.22;;;20.80;74.70
70103;BME280;57470;50.034;15.256;2022-10-18T14:09:57;100110.44;;;20.91;74.78
70103;BME280;57470;50.034;15.256;2022-10-18T14:15:04;100111.44;;;20.90;73.74
70103;BME280;57470;50.034;15.256;2022-10-18T14:17:43;100099.00;;;20.80;73.55
70103;BME280;57470;50.034;15.256;2022-10-18T14:25:28;100114.84;;;20.75;75.08
70103;BME280;57470;50.034;15.256;2022-10-18T14:28:10;100113.50;;;20.79;75.45
70103;BME280;57470;50.034;15.256;2022-10-18T14:30:58;100123.19;;;20.64;75.10
70103;BME280;57470;50.034;15.256;2022-10-18T14:38:31;100120.91;;;20.41;76.46
70103;BME280;57470;50.034;15.256;2022-10-18T14:41:05;100122.28;;;20.18;76.99
70103;BME280;57470;50.034;15.256;2022-10-18T14:43:31;100126.16;;;19.78;77.72
70103;BME280;57470;50.034;15.256;2022-10-18T14:46:08;100122.47;;;19.23;79.66
70103;BME280;57470;50.034;15.256;2022-10-18T14:48:34;100123.59;;;19.30;80.26
70103;BME280;57470;50.034;15.256;2022-10-18T14:51:08;100130.84;;;19.20;80.21
70103;BME280;57470;50.034;15.256;2022-10-18T14:53:37;100127.56;;;18.97;80.57
70103;BME280;57470;50.034;15.256;2022-10-18T14:56:03;100130.13;;;18.89;81.40
70103;BME280;57470;50.034;15.256;2022-10-18T14:58:33;100138.78;;;18.73;81.65
70103;BME280;57470;50.034;15.256;2022-10-18T15:01:00;100127.44;;;18.89;81.81
70103;BME280;57470;50.034;15.256;2022-10-18T15:03:26;100137.53;;;18.87;81.62
70103;BME280;57470;50.034;15.256;2022-10-18T15:05:57;100139.66;;;18.74;81.96
70103;BME280;57470;50.034;15.256;2022-10-18T15:08:38;100147.66;;;18.45;82.75
70103;BME280;57470;50.034;15.256;2022-10-18T15:11:05;100146.56;;;18.57;82.81